sensor_id;sensor_type;location;lat;lon;timestamp;temperature;humidity
41481;DHT22;27217;51.220;5.308;2023-10-13T00:01:24;17.90;99.90
41481;DHT22;27217;51.220;5.308;2023-10-13T00:03:51;18.10;99.90
41481;DHT22;27217;51.220;5.308;2023-10-13T00:06:18;17.90;99.90
41481;DHT22;27217;51.220;5.308;2023-10-13T00:08:44;17.70;99.90
41481;DHT22;27217;51.220;5.308;2023-10-13T00:11:15;17.60;99.90
41481;DHT22;27217;51.220;5.308;2023-10-13T00:13:41;17.50;99.90
41481;DHT22;27217;51.220;5.308;2023-10-13T00:16:23;17.60;99.90
41481;DHT22;27217;51.220;5.308;2023-10-13T00:18:53;17.80;99.90
41481;DHT22;27217;51.220;5.308;2023-10-13T00:21:24;17.70;99.90
41481;DHT22;27217;51.220;5.308;2023-10-13T00:23:57;17.60;99.90
41481;DHT22;27217;51.220;5.308;2023-10-13T00:26:28;17.80;99.90
41481;DHT22;27217;51.220;5.308;2023-10-13T00:28:58;17.90;99.90
41481;DHT22;27217;51.220;5.308;2023-10-13T00:31:30;17.90;99.90
41481;DHT22;27217;51.220;5.308;2023-10-13T00:34:01;17.90;99.90
41481;DHT22;27217;51.220;5.308;2023-10-13T00:36:48;17.80;99.90
41481;DHT22;27217;51.220;5.308;2023-10-13T00:39:32;18.10;99.90
41481;DHT22;27217;51.220;5.308;2023-10-13T00:42:05;18.20;99.90
41481;DHT22;27217;51.220;5.308;2023-10-13T00:44:43;18.00;99.90
41481;DHT22;27217;51.220;5.308;2023-10-13T00:47:15;18.00;99.90
41481;DHT22;27217;51.220;5.308;2023-10-13T00:49:46;17.80;99.90
41481;DHT22;27217;51.220;5.308;2023-10-13T00:52:14;17.80;99.90
41481;DHT22;27217;51.220;5.308;2023-10-13T00:54:44;17.60;99.90
41481;DHT22;27217;51.220;5.308;2023-10-13T00:57:14;17.60;99.90
41481;DHT22;27217;51.220;5.308;2023-10-13T00:59:55;17.80;99.90
41481;DHT22;27217;51.220;5.308;2023-10-13T01:02:21;17.80;99.90
41481;DHT22;27217;51.220;5.308;2023-10-13T01:05:06;17.70;99.90
41481;DHT22;27217;51.220;5.308;2023-10-13T01:07:46;17.50;99.90
41481;DHT22;27217;51.220;5.308;2023-10-13T01:10:16;17.70;99.90
41481;DHT22;27217;51.220;5.308;2023-10-13T01:12:42;17.90;99.90
41481;DHT22;27217;51.220;5.308;2023-10-13T01:15:09;18.00;99.90
41481;DHT22;27217;51.220;5.308;2023-10-13T01:17:36;17.90;99.90
41481;DHT22;27217;51.220;5.308;2023-10-13T01:20:03;18.00;99.90
41481;DHT22;27217;51.220;5.308;2023-10-13T01:22:33;17.90;99.90
41481;DHT22;27217;51.220;5.308;2023-10-13T01:25:01;17.90;99.90
41481;DHT22;27217;51.220;5.308;2023-10-13T01:27:39;17.70;99.90
41481;DHT22;27217;51.220;5.308;2023-10-13T01:30:06;17.90;99.90
41481;DHT22;27217;51.220;5.308;2023-10-13T01:32:35;17.90;99.90
41481;DHT22;27217;51.220;5.308;2023-10-13T01:35:11;17.80;99.90
41481;DHT22;27217;51.220;5.308;2023-10-13T01:37:37;17.60;99.90
41481;DHT22;27217;51.220;5.308;2023-10-13T01:40:03;17.50;99.90
41481;DHT22;27217;51.220;5.308;2023-10-13T01:42:29;17.50;99.90
41481;DHT22;27217;51.220;5.308;2023-10-13T01:44:56;17.40;99.90
41481;DHT22;27217;51.220;5.308;2023-10-13T01:47:33;17.50;99.90
41481;DHT22;27217;51.220;5.308;2023-10-13T01:49:59;17.40;99.90
41481;DHT22;27217;51.220;5.308;2023-10-13T01:52:38;17.30;99.90
41481;DHT22;27217;51.220;5.308;2023-10-13T01:55:04;17.50;99.90
41481;DHT22;27217;51.220;5.308;2023-10-13T01:57:32;17.80;99.90
41481;DHT22;27217;51.220;5.308;2023-10-13T01:59:58;17.80;99.90
41481;DHT22;27217;51.220;5.308;2023-10-13T02:02:34;17.70;99.90
41481;DHT22;27217;51.220;5.308;2023-10-13T02:04:59;17.80;99.90
41481;DHT22;27217;51.220;5.308;2023-10-13T02:07:28;17.80;99.90
41481;DHT22;27217;51.220;5.308;2023-10-13T02:10:00;17.80;99.90
41481;DHT22;27217;51.220;5.308;2023-10-13T02:12:30;17.60;99.90
41481;DHT22;27217;51.220;5.308;2023-10-13T02:15:12;17.70;99.90
41481;DHT22;27217;51.220;5.308;2023-10-13T02:17:47;17.80;99.90
41481;DHT22;27217;51.220;5.308;2023-10-13T02:20:17;17.60;99.90
41481;DHT22;27217;51.220;5.308;2023-10-13T02:22:55;17.80;99.90
41481;DHT22;27217;51.220;5.308;2023-10-13T02:25:21;17.90;99.90
41481;DHT22;27217;51.220;5.308;2023-10-13T02:28:06;17.90;99.90
41481;DHT22;27217;51.220;5.308;2023-10-13T02:30:40;17.80;99.90
41481;DHT22;27217;51.220;5.308;2023-10-13T02:33:12;17.80;99.90
41481;DHT22;27217;51.220;5.308;2023-10-13T02:35:39;17.80;99.90
41481;DHT22;27217;51.220;5.308;2023-10-13T02:38:09;18.00;99.90
41481;DHT22;27217;51.220;5.308;2023-10-13T02:40:41;18.00;99.90
41481;DHT22;27217;51.220;5.308;2023-10-13T02:43:07;18.20;99.90
41481;DHT22;27217;51.220;5.308;2023-10-13T02:45:33;18.00;99.90
41481;DHT22;27217;51.220;5.308;2023-10-13T02:48:04;17.80;99.90
41481;DHT22;27217;51.220;5.308;2023-10-13T02:50:40;18.00;99.90
41481;DHT22;27217;51.220;5.308;2023-10-13T02:53:10;17.90;99.90
41481;DHT22;27217;51.220;5.308;2023-10-13T02:55:50;17.80;99.90
41481;DHT22;27217;51.220;5.308;2023-10-13T02:58:16;17.60;99.90
41481;DHT22;27217;51.220;5.308;2023-10-13T03:00:43;17.60;99.90
41481;DHT22;27217;51.220;5.308;2023-10-13T03:03:09;17.80;99.90
41481;DHT22;27217;51.220;5.308;2023-10-13T03:05:35;17.80;99.90
41481;DHT22;27217;51.220;5.308;2023-10-13T03:08:05;17.90;99.90
41481;DHT22;27217;51.220;5.308;2023-10-13T03:10:31;17.90;99.90
41481;DHT22;27217;51.220;5.308;2023-10-13T03:12:58;18.00;99.90
41481;DHT22;27217;51.220;5.308;2023-10-13T03:15:24;18.00;99.90
41481;DHT22;27217;51.220;5.308;2023-10-13T03:17:56;18.10;99.90
41481;DHT22;27217;51.220;5.308;2023-10-13T03:20:25;17.90;99.90
41481;DHT22;27217;51.220;5.308;2023-10-13T03:22:58;17.80;99.90
41481;DHT22;27217;51.220;5.308;2023-10-13T03:25:24;17.90;99.90
41481;DHT22;27217;51.220;5.308;2023-10-13T03:28:02;17.80;99.90
41481;DHT22;27217;51.220;5.308;2023-10-13T03:30:31;17.80;99.90
41481;DHT22;27217;51.220;5.308;2023-10-13T03:33:23;17.70;99.90
41481;DHT22;27217;51.220;5.308;2023-10-13T03:35:51;17.80;99.90
41481;DHT22;27217;51.220;5.308;2023-10-13T03:38:24;17.80;99.90
41481;DHT22;27217;51.220;5.308;2023-10-13T03:40:55;17.90;99.90
41481;DHT22;27217;51.220;5.308;2023-10-13T03:43:33;17.80;99.90
41481;DHT22;27217;51.220;5.308;2023-10-13T03:46:10;17.70;99.90
41481;DHT22;27217;51.220;5.308;2023-10-13T03:48:36;17.70;99.90
41481;DHT22;27217;51.220;5.308;2023-10-13T03:51:31;17.70;99.90
41481;DHT22;27217;51.220;5.308;2023-10-13T03:54:04;17.80;99.90
41481;DHT22;27217;51.220;5.308;2023-10-13T03:56:32;17.80;99.90
41481;DHT22;27217;51.220;5.308;2023-10-13T03:59:04;17.80;99.90
41481;DHT22;27217;51.220;5.308;2023-10-13T04:01:32;18.00;99.90
41481;DHT22;27217;51.220;5.308;2023-10-13T04:04:11;17.90;99.90
41481;DHT22;27217;51.220;5.308;2023-10-13T04:06:38;17.90;99.90
41481;DHT22;27217;51.220;5.308;2023-10-13T04:09:21;17.90;99.90
41481;DHT22;27217;51.220;5.308;2023-10-13T04:14:45;17.90;99.90
41481;DHT22;27217;51.220;5.308;2023-10-13T04:17:11;18.00;99.90
41481;DHT22;27217;51.220;5.308;2023-10-13T04:19:42;17.90;99.90
41481;DHT22;27217;51.220;5.308;2023-10-13T04:22:27;17.90;99.90
41481;DHT22;27217;51.220;5.308;2023-10-13T04:28:01;17.90;99.90
41481;DHT22;27217;51.220;5.308;2023-10-13T04:33:18;17.90;99.90
41481;DHT22;27217;51.220;5.308;2023-10-13T04:36:05;17.90;99.90
41481;DHT22;27217;51.220;5.308;2023-10-13T04:38:59;17.90;99.90
41481;DHT22;27217;51.220;5.308;2023-10-13T04:41:29;17.80;99.90
41481;DHT22;27217;51.220;5.308;2023-10-13T04:44:03;17.80;99.90
41481;DHT22;27217;51.220;5.308;2023-10-13T04:46:48;17.80;99.90
41481;DHT22;27217;51.220;5.308;2023-10-13T04:49:14;17.90;99.90
41481;DHT22;27217;51.220;5.308;2023-10-13T04:51:55;17.90;99.90
41481;DHT22;27217;51.220;5.308;2023-10-13T04:54:44;18.00;99.90
41481;DHT22;27217;51.220;5.308;2023-10-13T04:57:15;18.00;99.90
41481;DHT22;27217;51.220;5.308;2023-10-13T05:00:04;18.10;99.90
41481;DHT22;27217;51.220;5.308;2023-10-13T05:02:37;18.00;99.90
41481;DHT22;27217;51.220;5.308;2023-10-13T05:07:34;18.00;99.90
41481;DHT22;27217;51.220;5.308;2023-10-13T05:10:19;18.10;99.90
41481;DHT22;27217;51.220;5.308;2023-10-13T05:13:03;18.10;99.90
41481;DHT22;27217;51.220;5.308;2023-10-13T05:15:48;18.00;99.90
41481;DHT22;27217;51.220;5.308;2023-10-13T05:18:33;18.00;99.90
41481;DHT22;27217;51.220;5.308;2023-10-13T05:21:17;18.10;99.90
41481;DHT22;27217;51.220;5.308;2023-10-13T05:24:03;18.10;99.90
41481;DHT22;27217;51.220;5.308;2023-10-13T05:26:47;18.10;99.90
41481;DHT22;27217;51.220;5.308;2023-10-13T05:29:32;18.10;99.90
41481;DHT22;27217;51.220;5.308;2023-10-13T05:32:16;18.10;99.90
41481;DHT22;27217;51.220;5.308;2023-10-13T05:35:01;18.00;99.90
41481;DHT22;27217;51.220;5.308;2023-10-13T05:37:45;18.10;99.90
41481;DHT22;27217;51.220;5.308;2023-10-13T05:40:30;18.10;99.90
41481;DHT22;27217;51.220;5.308;2023-10-13T05:43:14;18.00;99.90
41481;DHT22;27217;51.220;5.308;2023-10-13T05:46:03;18.10;99.90
41481;DHT22;27217;51.220;5.308;2023-10-13T05:48:48;17.90;99.90
41481;DHT22;27217;51.220;5.308;2023-10-13T05:51:26;17.80;99.90
41481;DHT22;27217;51.220;5.308;2023-10-13T05:54:12;17.80;99.90
41481;DHT22;27217;51.220;5.308;2023-10-13T05:56:57;17.90;99.90
41481;DHT22;27217;51.220;5.308;2023-10-13T05:59:41;18.00;99.90
41481;DHT22;27217;51.220;5.308;2023-10-13T06:02:25;17.90;99.90
41481;DHT22;27217;51.220;5.308;2023-10-13T06:05:13;17.80;99.90
41481;DHT22;27217;51.220;5.308;2023-10-13T06:07:58;17.90;99.90
41481;DHT22;27217;51.220;5.308;2023-10-13T06:10:42;17.90;99.90
41481;DHT22;27217;51.220;5.308;2023-10-13T06:13:28;17.80;99.90
41481;DHT22;27217;51.220;5.308;2023-10-13T06:16:15;17.90;99.90
41481;DHT22;27217;51.220;5.308;2023-10-13T06:19:00;17.90;99.90
41481;DHT22;27217;51.220;5.308;2023-10-13T06:21:45;18.00;99.90
41481;DHT22;27217;51.220;5.308;2023-10-13T06:24:30;18.10;99.90
41481;DHT22;27217;51.220;5.308;2023-10-13T06:27:15;18.10;99.90
41481;DHT22;27217;51.220;5.308;2023-10-13T06:30:00;18.10;99.90
41481;DHT22;27217;51.220;5.308;2023-10-13T06:32:32;18.00;99.90
41481;DHT22;27217;51.220;5.308;2023-10-13T06:34:59;18.00;99.90
41481;DHT22;27217;51.220;5.308;2023-10-13T06:37:44;18.00;99.90
41481;DHT22;27217;51.220;5.308;2023-10-13T06:40:12;18.00;99.90
41481;DHT22;27217;51.220;5.308;2023-10-13T06:42:59;18.00;99.90
41481;DHT22;27217;51.220;5.308;2023-10-13T06:45:45;18.10;99.90
41481;DHT22;27217;51.220;5.308;2023-10-13T06:48:26;18.00;99.90
41481;DHT22;27217;51.220;5.308;2023-10-13T06:50:53;18.20;99.90
41481;DHT22;27217;51.220;5.308;2023-10-13T06:53:21;18.20;99.90
41481;DHT22;27217;51.220;5.308;2023-10-13T06:55:47;18.30;99.90
41481;DHT22;27217;51.220;5.308;2023-10-13T06:58:18;18.30;99.90
41481;DHT22;27217;51.220;5.308;2023-10-13T07:00:49;18.30;99.90
41481;DHT22;27217;51.220;5.308;2023-10-13T07:03:25;18.20;99.90
41481;DHT22;27217;51.220;5.308;2023-10-13T07:05:51;18.20;99.90
41481;DHT22;27217;51.220;5.308;2023-10-13T07:08:18;18.20;99.90
41481;DHT22;27217;51.220;5.308;2023-10-13T07:10:54;18.20;99.90
41481;DHT22;27217;51.220;5.308;2023-10-13T07:13:31;18.20;99.90
41481;DHT22;27217;51.220;5.308;2023-10-13T07:15:57;18.30;99.90
41481;DHT22;27217;51.220;5.308;2023-10-13T07:18:30;18.30;99.90
41481;DHT22;27217;51.220;5.308;2023-10-13T07:21:03;18.40;99.90
41481;DHT22;27217;51.220;5.308;2023-10-13T07:23:39;18.40;99.90
41481;DHT22;27217;51.220;5.308;2023-10-13T07:26:09;18.40;99.90
41481;DHT22;27217;51.220;5.308;2023-10-13T07:28:37;18.40;99.90
41481;DHT22;27217;51.220;5.308;2023-10-13T07:31:12;18.70;99.90
41481;DHT22;27217;51.220;5.308;2023-10-13T07:33:38;18.70;99.90
41481;DHT22;27217;51.220;5.308;2023-10-13T07:36:08;18.70;99.90
41481;DHT22;27217;51.220;5.308;2023-10-13T07:38:45;18.90;99.90
41481;DHT22;27217;51.220;5.308;2023-10-13T07:41:18;19.00;99.90
41481;DHT22;27217;51.220;5.308;2023-10-13T07:43:47;19.00;99.90
41481;DHT22;27217;51.220;5.308;2023-10-13T07:46:14;19.00;99.90
41481;DHT22;27217;51.220;5.308;2023-10-13T07:48:40;19.30;99.90
41481;DHT22;27217;51.220;5.308;2023-10-13T07:51:10;19.40;99.90
41481;DHT22;27217;51.220;5.308;2023-10-13T07:53:40;19.40;99.90
41481;DHT22;27217;51.220;5.308;2023-10-13T07:56:07;19.40;99.90
41481;DHT22;27217;51.220;5.308;2023-10-13T07:58:35;19.60;99.90
41481;DHT22;27217;51.220;5.308;2023-10-13T08:01:21;19.70;99.90
41481;DHT22;27217;51.220;5.308;2023-10-13T08:03:47;19.70;99.90
41481;DHT22;27217;51.220;5.308;2023-10-13T08:06:23;19.50;99.90
41481;DHT22;27217;51.220;5.308;2023-10-13T08:08:54;19.70;99.90
41481;DHT22;27217;51.220;5.308;2023-10-13T08:11:33;19.50;99.90
41481;DHT22;27217;51.220;5.308;2023-10-13T08:14:04;19.40;99.90
41481;DHT22;27217;51.220;5.308;2023-10-13T08:16:49;19.50;99.90
41481;DHT22;27217;51.220;5.308;2023-10-13T08:19:30;19.50;99.90
41481;DHT22;27217;51.220;5.308;2023-10-13T08:22:06;19.70;99.90
41481;DHT22;27217;51.220;5.308;2023-10-13T08:24:50;19.80;99.90
41481;DHT22;27217;51.220;5.308;2023-10-13T08:27:19;20.00;99.90
41481;DHT22;27217;51.220;5.308;2023-10-13T08:30:03;20.00;99.90
41481;DHT22;27217;51.220;5.308;2023-10-13T08:32:48;19.90;99.90
41481;DHT22;27217;51.220;5.308;2023-10-13T08:35:25;20.20;99.90
41481;DHT22;27217;51.220;5.308;2023-10-13T08:38:20;20.20;99.90
41481;DHT22;27217;51.220;5.308;2023-10-13T08:40:58;20.10;99.90
41481;DHT22;27217;51.220;5.308;2023-10-13T08:43:43;20.10;99.90
41481;DHT22;27217;51.220;5.308;2023-10-13T08:46:13;20.10;99.90
41481;DHT22;27217;51.220;5.308;2023-10-13T08:48:53;20.20;99.90
41481;DHT22;27217;51.220;5.308;2023-10-13T08:51:34;20.30;99.90
41481;DHT22;27217;51.220;5.308;2023-10-13T08:54:14;20.40;99.90
41481;DHT22;27217;51.220;5.308;2023-10-13T08:57:00;20.50;99.90
41481;DHT22;27217;51.220;5.308;2023-10-13T08:59:46;20.50;99.90
41481;DHT22;27217;51.220;5.308;2023-10-13T09:02:21;20.30;99.90
41481;DHT22;27217;51.220;5.308;2023-10-13T09:05:09;20.50;99.90
41481;DHT22;27217;51.220;5.308;2023-10-13T09:07:55;20.60;99.90
41481;DHT22;27217;51.220;5.308;2023-10-13T09:10:24;20.80;99.90
41481;DHT22;27217;51.220;5.308;2023-10-13T09:12:58;20.90;99.90
41481;DHT22;27217;51.220;5.308;2023-10-13T09:15:29;21.00;99.90
41481;DHT22;27217;51.220;5.308;2023-10-13T09:18:28;21.10;99.90
41481;DHT22;27217;51.220;5.308;2023-10-13T09:21:08;21.10;99.90
41481;DHT22;27217;51.220;5.308;2023-10-13T09:23:58;21.10;99.90
41481;DHT22;27217;51.220;5.308;2023-10-13T09:26:43;21.30;99.90
41481;DHT22;27217;51.220;5.308;2023-10-13T09:29:17;21.30;99.90
41481;DHT22;27217;51.220;5.308;2023-10-13T09:31:45;21.50;99.90
41481;DHT22;27217;51.220;5.308;2023-10-13T09:34:20;21.50;99.90
41481;DHT22;27217;51.220;5.308;2023-10-13T09:36:49;21.80;99.90
41481;DHT22;27217;51.220;5.308;2023-10-13T09:39:24;21.80;99.90
41481;DHT22;27217;51.220;5.308;2023-10-13T09:42:01;21.80;99.90
41481;DHT22;27217;51.220;5.308;2023-10-13T09:44:29;21.80;99.90
41481;DHT22;27217;51.220;5.308;2023-10-13T09:47:01;21.90;99.90
41481;DHT22;27217;51.220;5.308;2023-10-13T09:49:39;21.80;99.90
41481;DHT22;27217;51.220;5.308;2023-10-13T09:52:16;21.60;99.90
41481;DHT22;27217;51.220;5.308;2023-10-13T09:58:08;21.70;99.90
41481;DHT22;27217;51.220;5.308;2023-10-13T10:00:43;21.80;99.90
41481;DHT22;27217;51.220;5.308;2023-10-13T10:03:23;22.00;99.90
41481;DHT22;27217;51.220;5.308;2023-10-13T10:06:05;22.10;99.90
41481;DHT22;27217;51.220;5.308;2023-10-13T10:08:44;22.10;99.90
41481;DHT22;27217;51.220;5.308;2023-10-13T10:14:16;22.10;99.90
41481;DHT22;27217;51.220;5.308;2023-10-13T10:17:05;22.30;99.90
41481;DHT22;27217;51.220;5.308;2023-10-13T10:19:50;22.60;99.90
41481;DHT22;27217;51.220;5.308;2023-10-13T10:22:31;22.90;99.90
41481;DHT22;27217;51.220;5.308;2023-10-13T10:25:04;23.00;99.90
41481;DHT22;27217;51.220;5.308;2023-10-13T10:27:57;22.60;99.90
41481;DHT22;27217;51.220;5.308;2023-10-13T10:30:27;22.50;99.90
41481;DHT22;27217;51.220;5.308;2023-10-13T10:32:55;22.50;99.90
41481;DHT22;27217;51.220;5.308;2023-10-13T10:35:33;22.30;99.90
41481;DHT22;27217;51.220;5.308;2023-10-13T10:38:17;22.00;99.90
41481;DHT22;27217;51.220;5.308;2023-10-13T10:41:01;22.20;99.90
41481;DHT22;27217;51.220;5.308;2023-10-13T10:43:27;22.10;99.90
41481;DHT22;27217;51.220;5.308;2023-10-13T10:45:56;22.10;99.90
41481;DHT22;27217;51.220;5.308;2023-10-13T10:48:26;22.30;99.90
41481;DHT22;27217;51.220;5.308;2023-10-13T10:51:00;22.40;99.90
41481;DHT22;27217;51.220;5.308;2023-10-13T10:53:34;22.50;99.90
41481;DHT22;27217;51.220;5.308;2023-10-13T10:56:10;22.20;99.90
41481;DHT22;27217;51.220;5.308;2023-10-13T10:58:49;22.30;99.90
41481;DHT22;27217;51.220;5.308;2023-10-13T11:01:23;22.50;99.90
41481;DHT22;27217;51.220;5.308;2023-10-13T11:03:58;22.60;99.90
41481;DHT22;27217;51.220;5.308;2023-10-13T11:06:26;22.60;99.90
41481;DHT22;27217;51.220;5.308;2023-10-13T11:09:11;22.60;99.90
41481;DHT22;27217;51.220;5.308;2023-10-13T11:11:53;22.70;99.90
41481;DHT22;27217;51.220;5.308;2023-10-13T11:14:29;22.60;99.90
41481;DHT22;27217;51.220;5.308;2023-10-13T11:16:56;22.80;99.90
41481;DHT22;27217;51.220;5.308;2023-10-13T11:19:40;22.70;99.90
41481;DHT22;27217;51.220;5.308;2023-10-13T11:22:22;22.80;99.90
41481;DHT22;27217;51.220;5.308;2023-10-13T11:25:07;23.20;99.90
41481;DHT22;27217;51.220;5.308;2023-10-13T11:27:40;23.50;99.90
41481;DHT22;27217;51.220;5.308;2023-10-13T11:30:18;24.00;99.90
41481;DHT22;27217;51.220;5.308;2023-10-13T11:33:07;24.60;99.90
41481;DHT22;27217;51.220;5.308;2023-10-13T11:35:34;25.00;99.90
41481;DHT22;27217;51.220;5.308;2023-10-13T11:38:31;24.50;99.90
41481;DHT22;27217;51.220;5.308;2023-10-13T11:41:08;23.90;99.90
41481;DHT22;27217;51.220;5.308;2023-10-13T11:43:44;23.50;99.90
41481;DHT22;27217;51.220;5.308;2023-10-13T11:46:17;23.50;99.90
41481;DHT22;27217;51.220;5.308;2023-10-13T11:49:08;23.60;99.90
41481;DHT22;27217;51.220;5.308;2023-10-13T11:51:34;23.80;99.90
41481;DHT22;27217;51.220;5.308;2023-10-13T11:54:03;23.90;99.90
41481;DHT22;27217;51.220;5.308;2023-10-13T11:56:29;24.10;99.90
41481;DHT22;27217;51.220;5.308;2023-10-13T11:58:55;24.40;99.90
41481;DHT22;27217;51.220;5.308;2023-10-13T12:01:27;24.30;99.90
41481;DHT22;27217;51.220;5.308;2023-10-13T12:04:11;24.20;99.90
41481;DHT22;27217;51.220;5.308;2023-10-13T12:06:58;24.20;99.90
41481;DHT22;27217;51.220;5.308;2023-10-13T12:09:43;24.30;99.90
41481;DHT22;27217;51.220;5.308;2023-10-13T12:12:29;24.40;99.90
41481;DHT22;27217;51.220;5.308;2023-10-13T12:15:06;24.10;99.90
41481;DHT22;27217;51.220;5.308;2023-10-13T12:17:51;24.20;99.90
41481;DHT22;27217;51.220;5.308;2023-10-13T12:20:17;23.80;99.90
41481;DHT22;27217;51.220;5.308;2023-10-13T12:22:44;23.50;99.90
41481;DHT22;27217;51.220;5.308;2023-10-13T12:25:21;23.70;99.90
41481;DHT22;27217;51.220;5.308;2023-10-13T12:27:59;23.90;99.90
41481;DHT22;27217;51.220;5.308;2023-10-13T12:30:39;23.70;99.90
41481;DHT22;27217;51.220;5.308;2023-10-13T12:33:34;23.60;99.90
41481;DHT22;27217;51.220;5.308;2023-10-13T12:36:03;23.80;99.90
41481;DHT22;27217;51.220;5.308;2023-10-13T12:38:36;23.80;99.90
41481;DHT22;27217;51.220;5.308;2023-10-13T12:41:05;23.70;99.90
41481;DHT22;27217;51.220;5.308;2023-10-13T12:43:50;23.50;99.90
41481;DHT22;27217;51.220;5.308;2023-10-13T12:46:34;23.50;99.90
41481;DHT22;27217;51.220;5.308;2023-10-13T12:49:18;23.20;99.90
41481;DHT22;27217;51.220;5.308;2023-10-13T12:52:03;23.10;99.90
41481;DHT22;27217;51.220;5.308;2023-10-13T12:54:28;23.10;99.90
41481;DHT22;27217;51.220;5.308;2023-10-13T12:57:01;23.10;99.90
41481;DHT22;27217;51.220;5.308;2023-10-13T12:59:29;23.10;99.90
41481;DHT22;27217;51.220;5.308;2023-10-13T13:01:55;23.10;99.90
41481;DHT22;27217;51.220;5.308;2023-10-13T13:04:21;23.30;99.90
41481;DHT22;27217;51.220;5.308;2023-10-13T13:06:48;23.20;99.90
41481;DHT22;27217;51.220;5.308;2023-10-13T13:09:14;23.10;99.90
41481;DHT22;27217;51.220;5.308;2023-10-13T13:11:40;23.10;99.90
41481;DHT22;27217;51.220;5.308;2023-10-13T13:14:06;23.10;99.90
41481;DHT22;27217;51.220;5.308;2023-10-13T13:16:33;22.90;99.90
41481;DHT22;27217;51.220;5.308;2023-10-13T13:18:59;22.90;99.90
41481;DHT22;27217;51.220;5.308;2023-10-13T13:21:29;22.90;99.90
41481;DHT22;27217;51.220;5.308;2023-10-13T13:23:54;22.80;99.90
41481;DHT22;27217;51.220;5.308;2023-10-13T13:26:21;22.70;99.90
41481;DHT22;27217;51.220;5.308;2023-10-13T13:28:48;22.90;99.90
41481;DHT22;27217;51.220;5.308;2023-10-13T13:31:20;22.80;99.90
41481;DHT22;27217;51.220;5.308;2023-10-13T13:33:57;22.80;99.90
41481;DHT22;27217;51.220;5.308;2023-10-13T13:36:24;22.90;99.90
41481;DHT22;27217;51.220;5.308;2023-10-13T13:38:51;23.10;99.90
41481;DHT22;27217;51.220;5.308;2023-10-13T13:41:20;23.00;99.90
41481;DHT22;27217;51.220;5.308;2023-10-13T13:43:48;23.10;99.90
41481;DHT22;27217;51.220;5.308;2023-10-13T13:46:22;23.10;99.90
41481;DHT22;27217;51.220;5.308;2023-10-13T13:48:53;23.10;99.90
41481;DHT22;27217;51.220;5.308;2023-10-13T13:51:29;23.10;99.90
41481;DHT22;27217;51.220;5.308;2023-10-13T13:53:57;23.40;99.90
41481;DHT22;27217;51.220;5.308;2023-10-13T13:56:24;23.30;99.90
41481;DHT22;27217;51.220;5.308;2023-10-13T13:58:54;23.00;99.90
41481;DHT22;27217;51.220;5.308;2023-10-13T14:01:24;23.10;99.90
41481;DHT22;27217;51.220;5.308;2023-10-13T14:03:54;22.90;99.90
41481;DHT22;27217;51.220;5.308;2023-10-13T14:06:28;22.80;99.90
41481;DHT22;27217;51.220;5.308;2023-10-13T14:08:58;22.80;99.90
41481;DHT22;27217;51.220;5.308;2023-10-13T14:11:42;22.90;99.90
41481;DHT22;27217;51.220;5.308;2023-10-13T14:14:26;23.10;99.90
41481;DHT22;27217;51.220;5.308;2023-10-13T14:16:52;23.00;99.90
41481;DHT22;27217;51.220;5.308;2023-10-13T14:19:19;23.10;99.90
41481;DHT22;27217;51.220;5.308;2023-10-13T14:21:54;22.90;99.90
41481;DHT22;27217;51.220;5.308;2023-10-13T14:24:21;23.10;99.90
41481;DHT22;27217;51.220;5.308;2023-10-13T14:29:19;23.10;99.90
41481;DHT22;27217;51.220;5.308;2023-10-13T14:31:48;23.00;99.90
41481;DHT22;27217;51.220;5.308;2023-10-13T14:34:14;23.10;99.90
41481;DHT22;27217;51.220;5.308;2023-10-13T14:36:40;23.10;99.90
41481;DHT22;27217;51.220;5.308;2023-10-13T14:39:06;23.40;99.90
41481;DHT22;27217;51.220;5.308;2023-10-13T14:41:38;23.40;99.90
41481;DHT22;27217;51.220;5.308;2023-10-13T14:44:04;23.40;99.90
41481;DHT22;27217;51.220;5.308;2023-10-13T14:46:34;23.30;99.90
41481;DHT22;27217;51.220;5.308;2023-10-13T14:49:05;23.30;99.90
41481;DHT22;27217;51.220;5.308;2023-10-13T14:51:31;23.50;99.90
41481;DHT22;27217;51.220;5.308;2023-10-13T14:53:58;23.60;99.90
41481;DHT22;27217;51.220;5.308;2023-10-13T14:56:29;23.40;99.90
41481;DHT22;27217;51.220;5.308;2023-10-13T14:58:55;23.20;99.90
41481;DHT22;27217;51.220;5.308;2023-10-13T15:01:22;23.10;99.90
41481;DHT22;27217;51.220;5.308;2023-10-13T15:03:51;23.00;99.90
41481;DHT22;27217;51.220;5.308;2023-10-13T15:06:25;22.70;99.90
41481;DHT22;27217;51.220;5.308;2023-10-13T15:08:58;22.60;99.90
41481;DHT22;27217;51.220;5.308;2023-10-13T15:11:25;22.80;99.90
41481;DHT22;27217;51.220;5.308;2023-10-13T15:14:04;22.70;99.90
41481;DHT22;27217;51.220;5.308;2023-10-13T15:16:32;22.60;99.90
41481;DHT22;27217;51.220;5.308;2023-10-13T15:19:01;22.60;99.90
41481;DHT22;27217;51.220;5.308;2023-10-13T15:21:30;22.70;99.90
41481;DHT22;27217;51.220;5.308;2023-10-13T15:24:03;22.50;99.90
41481;DHT22;27217;51.220;5.308;2023-10-13T15:26:43;22.50;99.90
41481;DHT22;27217;51.220;5.308;2023-10-13T15:29:16;22.40;99.90
41481;DHT22;27217;51.220;5.308;2023-10-13T15:31:46;22.00;99.90
41481;DHT22;27217;51.220;5.308;2023-10-13T15:34:27;21.90;99.90
41481;DHT22;27217;51.220;5.308;2023-10-13T15:36:54;21.30;99.90
41481;DHT22;27217;51.220;5.308;2023-10-13T15:39:23;20.90;99.90
41481;DHT22;27217;51.220;5.308;2023-10-13T15:41:57;20.70;99.90
41481;DHT22;27217;51.220;5.308;2023-10-13T15:44:27;20.60;99.90
41481;DHT22;27217;51.220;5.308;2023-10-13T15:46:57;20.50;99.90
41481;DHT22;27217;51.220;5.308;2023-10-13T15:49:23;20.60;99.90
41481;DHT22;27217;51.220;5.308;2023-10-13T15:51:49;20.60;99.90
41481;DHT22;27217;51.220;5.308;2023-10-13T15:54:19;20.70;99.90
41481;DHT22;27217;51.220;5.308;2023-10-13T15:56:47;20.80;99.90
41481;DHT22;27217;51.220;5.308;2023-10-13T15:59:14;20.70;99.90
41481;DHT22;27217;51.220;5.308;2023-10-13T16:01:40;20.60;99.90
41481;DHT22;27217;51.220;5.308;2023-10-13T16:04:09;20.60;99.90
41481;DHT22;27217;51.220;5.308;2023-10-13T16:06:44;20.50;99.90
41481;DHT22;27217;51.220;5.308;2023-10-13T16:09:19;20.30;99.90
41481;DHT22;27217;51.220;5.308;2023-10-13T16:11:49;20.10;99.90
41481;DHT22;27217;51.220;5.308;2023-10-13T16:14:16;20.00;99.90
41481;DHT22;27217;51.220;5.308;2023-10-13T16:16:48;20.00;99.90
41481;DHT22;27217;51.220;5.308;2023-10-13T16:19:17;20.00;99.90
41481;DHT22;27217;51.220;5.308;2023-10-13T16:21:47;20.20;99.90
41481;DHT22;27217;51.220;5.308;2023-10-13T16:24:13;20.20;99.90
41481;DHT22;27217;51.220;5.308;2023-10-13T16:26:45;20.10;99.90
41481;DHT22;27217;51.220;5.308;2023-10-13T16:29:17;20.20;99.90
41481;DHT22;27217;51.220;5.308;2023-10-13T16:31:43;20.20;99.90
41481;DHT22;27217;51.220;5.308;2023-10-13T16:34:16;20.30;99.90